<?xml version="1.0"?>
<gpx xmlns="http://www.topografix.com/GPX/1/1" version="1.1" creator="afstandmeten.nl" xmlns:xsi="http://www.w3.org/2001/XMLSchema-instance" xsi:schemaLocation="http://www.topografix.com/GPX/1/1 http://www.topografix.com/GPX/1/1/gpx.xsd">
  <trk>
    <name>Nogent-Langres</name>
    <desc></desc>
    <trkseg>
      <trkpt lat="48.0304358" lon="5.3482098">
        <time>2015-05-13T00:00:00Z</time>
      </trkpt>
      <trkpt lat="48.03139" lon="5.349">
        <time>2015-05-13T00:00:15Z</time>
      </trkpt>
      <trkpt lat="48.03142" lon="5.34856">
        <time>2015-05-13T00:00:19Z</time>
      </trkpt>
      <trkpt lat="48.0315" lon="5.34793">
        <time>2015-05-13T00:00:24Z</time>
      </trkpt>
      <trkpt lat="48.03159" lon="5.34722">
        <time>2015-05-13T00:00:31Z</time>
      </trkpt>
      <trkpt lat="48.03164" lon="5.34637">
        <time>2015-05-13T00:00:38Z</time>
      </trkpt>
      <trkpt lat="48.03157" lon="5.34546">
        <time>2015-05-13T00:00:47Z</time>
      </trkpt>
      <trkpt lat="48.03151" lon="5.34524">
        <time>2015-05-13T00:00:49Z</time>
      </trkpt>
      <trkpt lat="48.03128" lon="5.34484">
        <time>2015-05-13T00:00:53Z</time>
      </trkpt>
      <trkpt lat="48.03123" lon="5.34466">
        <time>2015-05-13T00:00:55Z</time>
      </trkpt>
      <trkpt lat="48.03125" lon="5.34456">
        <time>2015-05-13T00:00:56Z</time>
      </trkpt>
      <trkpt lat="48.03089" lon="5.34425">
        <time>2015-05-13T00:01:01Z</time>
      </trkpt>
      <trkpt lat="48.03057" lon="5.3439">
        <time>2015-05-13T00:01:07Z</time>
      </trkpt>
      <trkpt lat="48.03018" lon="5.3434">
        <time>2015-05-13T00:01:13Z</time>
      </trkpt>
      <trkpt lat="48.03028" lon="5.34312">
        <time>2015-05-13T00:01:16Z</time>
      </trkpt>
      <trkpt lat="48.03034" lon="5.3429">
        <time>2015-05-13T00:01:18Z</time>
      </trkpt>
      <trkpt lat="48.03034" lon="5.34264">
        <time>2015-05-13T00:01:21Z</time>
      </trkpt>
      <trkpt lat="48.03031" lon="5.34251">
        <time>2015-05-13T00:01:22Z</time>
      </trkpt>
      <trkpt lat="48.03025" lon="5.34239">
        <time>2015-05-13T00:01:23Z</time>
      </trkpt>
      <trkpt lat="48.03008" lon="5.34216">
        <time>2015-05-13T00:01:26Z</time>
      </trkpt>
      <trkpt lat="48.02967" lon="5.34177">
        <time>2015-05-13T00:01:33Z</time>
      </trkpt>
      <trkpt lat="48.02929" lon="5.34144">
        <time>2015-05-13T00:01:38Z</time>
      </trkpt>
      <trkpt lat="48.02912" lon="5.34119">
        <time>2015-05-13T00:01:42Z</time>
      </trkpt>
      <trkpt lat="48.02906" lon="5.34095">
        <time>2015-05-13T00:01:44Z</time>
      </trkpt>
      <trkpt lat="48.02871" lon="5.3406">
        <time>2015-05-13T00:01:49Z</time>
      </trkpt>
      <trkpt lat="48.02768" lon="5.3393">
        <time>2015-05-13T00:02:07Z</time>
      </trkpt>
      <trkpt lat="48.02733" lon="5.33884">
        <time>2015-05-13T00:02:13Z</time>
      </trkpt>
      <trkpt lat="48.02702" lon="5.33839">
        <time>2015-05-13T00:02:19Z</time>
      </trkpt>
      <trkpt lat="48.02678" lon="5.33798">
        <time>2015-05-13T00:02:24Z</time>
      </trkpt>
      <trkpt lat="48.02651" lon="5.33751">
        <time>2015-05-13T00:02:29Z</time>
      </trkpt>
      <trkpt lat="48.02632" lon="5.33715">
        <time>2015-05-13T00:02:33Z</time>
      </trkpt>
      <trkpt lat="48.02609" lon="5.33674">
        <time>2015-05-13T00:02:38Z</time>
      </trkpt>
      <trkpt lat="48.02593" lon="5.3365">
        <time>2015-05-13T00:02:41Z</time>
      </trkpt>
      <trkpt lat="48.02577" lon="5.33634">
        <time>2015-05-13T00:02:44Z</time>
      </trkpt>
      <trkpt lat="48.0256" lon="5.33622">
        <time>2015-05-13T00:02:46Z</time>
      </trkpt>
      <trkpt lat="48.02544" lon="5.33614">
        <time>2015-05-13T00:02:48Z</time>
      </trkpt>
      <trkpt lat="48.0251" lon="5.33603">
        <time>2015-05-13T00:02:53Z</time>
      </trkpt>
      <trkpt lat="48.02473" lon="5.33594">
        <time>2015-05-13T00:02:58Z</time>
      </trkpt>
      <trkpt lat="48.02439" lon="5.33586">
        <time>2015-05-13T00:03:03Z</time>
      </trkpt>
      <trkpt lat="48.02389" lon="5.33579">
        <time>2015-05-13T00:03:09Z</time>
      </trkpt>
      <trkpt lat="48.02337" lon="5.33566">
        <time>2015-05-13T00:03:16Z</time>
      </trkpt>
      <trkpt lat="48.02306" lon="5.33557">
        <time>2015-05-13T00:03:20Z</time>
      </trkpt>
      <trkpt lat="48.02216" lon="5.33516">
        <time>2015-05-13T00:03:33Z</time>
      </trkpt>
      <trkpt lat="48.022" lon="5.33507">
        <time>2015-05-13T00:03:35Z</time>
      </trkpt>
      <trkpt lat="48.02192" lon="5.335">
        <time>2015-05-13T00:03:36Z</time>
      </trkpt>
      <trkpt lat="48.02171" lon="5.33468">
        <time>2015-05-13T00:03:40Z</time>
      </trkpt>
      <trkpt lat="48.0215" lon="5.33431">
        <time>2015-05-13T00:03:44Z</time>
      </trkpt>
      <trkpt lat="48.02138" lon="5.33415">
        <time>2015-05-13T00:03:47Z</time>
      </trkpt>
      <trkpt lat="48.02075" lon="5.33336">
        <time>2015-05-13T00:03:57Z</time>
      </trkpt>
      <trkpt lat="48.02049" lon="5.33307">
        <time>2015-05-13T00:04:02Z</time>
      </trkpt>
      <trkpt lat="48.01978" lon="5.33224">
        <time>2015-05-13T00:04:14Z</time>
      </trkpt>
      <trkpt lat="48.01954" lon="5.33198">
        <time>2015-05-13T00:04:18Z</time>
      </trkpt>
      <trkpt lat="48.01932" lon="5.3318">
        <time>2015-05-13T00:04:21Z</time>
      </trkpt>
      <trkpt lat="48.01908" lon="5.33164">
        <time>2015-05-13T00:04:24Z</time>
      </trkpt>
      <trkpt lat="48.01847" lon="5.33135">
        <time>2015-05-13T00:04:33Z</time>
      </trkpt>
      <trkpt lat="48.01748" lon="5.33089">
        <time>2015-05-13T00:04:47Z</time>
      </trkpt>
      <trkpt lat="48.01655" lon="5.33044">
        <time>2015-05-13T00:04:59Z</time>
      </trkpt>
      <trkpt lat="48.01623" lon="5.33024">
        <time>2015-05-13T00:05:04Z</time>
      </trkpt>
      <trkpt lat="48.01592" lon="5.33">
        <time>2015-05-13T00:05:09Z</time>
      </trkpt>
      <trkpt lat="48.01555" lon="5.32969">
        <time>2015-05-13T00:05:14Z</time>
      </trkpt>
      <trkpt lat="48.01462" lon="5.32875">
        <time>2015-05-13T00:05:29Z</time>
      </trkpt>
      <trkpt lat="48.01427" lon="5.32851">
        <time>2015-05-13T00:05:34Z</time>
      </trkpt>
      <trkpt lat="48.01386" lon="5.32832">
        <time>2015-05-13T00:05:40Z</time>
      </trkpt>
      <trkpt lat="48.01345" lon="5.32819">
        <time>2015-05-13T00:05:45Z</time>
      </trkpt>
      <trkpt lat="48.0132" lon="5.3282">
        <time>2015-05-13T00:05:49Z</time>
      </trkpt>
      <trkpt lat="48.01295" lon="5.32824">
        <time>2015-05-13T00:05:52Z</time>
      </trkpt>
      <trkpt lat="48.01263" lon="5.32837">
        <time>2015-05-13T00:05:56Z</time>
      </trkpt>
      <trkpt lat="48.01235" lon="5.32854">
        <time>2015-05-13T00:06:00Z</time>
      </trkpt>
      <trkpt lat="48.01211" lon="5.32872">
        <time>2015-05-13T00:06:04Z</time>
      </trkpt>
      <trkpt lat="48.01142" lon="5.32938">
        <time>2015-05-13T00:06:15Z</time>
      </trkpt>
      <trkpt lat="48.01114" lon="5.32958">
        <time>2015-05-13T00:06:19Z</time>
      </trkpt>
      <trkpt lat="48.01087" lon="5.32972">
        <time>2015-05-13T00:06:23Z</time>
      </trkpt>
      <trkpt lat="48.01014" lon="5.33005">
        <time>2015-05-13T00:06:33Z</time>
      </trkpt>
      <trkpt lat="48.00977" lon="5.33025">
        <time>2015-05-13T00:06:38Z</time>
      </trkpt>
      <trkpt lat="48.00939" lon="5.33051">
        <time>2015-05-13T00:06:43Z</time>
      </trkpt>
      <trkpt lat="48.00855" lon="5.33119">
        <time>2015-05-13T00:06:56Z</time>
      </trkpt>
      <trkpt lat="48.00804" lon="5.33151">
        <time>2015-05-13T00:07:03Z</time>
      </trkpt>
      <trkpt lat="48.00721" lon="5.33184">
        <time>2015-05-13T00:07:15Z</time>
      </trkpt>
      <trkpt lat="48.00613" lon="5.33213">
        <time>2015-05-13T00:07:29Z</time>
      </trkpt>
      <trkpt lat="48.00543" lon="5.33224">
        <time>2015-05-13T00:07:39Z</time>
      </trkpt>
      <trkpt lat="48.004" lon="5.33241">
        <time>2015-05-13T00:07:57Z</time>
      </trkpt>
      <trkpt lat="48.00355" lon="5.33246">
        <time>2015-05-13T00:08:03Z</time>
      </trkpt>
      <trkpt lat="48.00327" lon="5.33245">
        <time>2015-05-13T00:08:07Z</time>
      </trkpt>
      <trkpt lat="48.00288" lon="5.33239">
        <time>2015-05-13T00:08:12Z</time>
      </trkpt>
      <trkpt lat="48.00272" lon="5.33235">
        <time>2015-05-13T00:08:14Z</time>
      </trkpt>
      <trkpt lat="48.00272" lon="5.33235">
        <time>2015-05-13T00:08:14Z</time>
      </trkpt>
      <trkpt lat="48.00224" lon="5.33219">
        <time>2015-05-13T00:08:21Z</time>
      </trkpt>
      <trkpt lat="48.00163" lon="5.33196">
        <time>2015-05-13T00:08:29Z</time>
      </trkpt>
      <trkpt lat="48.00131" lon="5.33183">
        <time>2015-05-13T00:08:34Z</time>
      </trkpt>
      <trkpt lat="48.00101" lon="5.33166">
        <time>2015-05-13T00:08:38Z</time>
      </trkpt>
      <trkpt lat="48.00058" lon="5.33129">
        <time>2015-05-13T00:08:44Z</time>
      </trkpt>
      <trkpt lat="48.00015" lon="5.33087">
        <time>2015-05-13T00:08:51Z</time>
      </trkpt>
      <trkpt lat="47.9999" lon="5.33066">
        <time>2015-05-13T00:08:55Z</time>
      </trkpt>
      <trkpt lat="47.9996" lon="5.33046">
        <time>2015-05-13T00:08:59Z</time>
      </trkpt>
      <trkpt lat="47.99896" lon="5.33013">
        <time>2015-05-13T00:09:08Z</time>
      </trkpt>
      <trkpt lat="47.99809" lon="5.3298">
        <time>2015-05-13T00:09:20Z</time>
      </trkpt>
      <trkpt lat="47.99769" lon="5.32973">
        <time>2015-05-13T00:09:26Z</time>
      </trkpt>
      <trkpt lat="47.99711" lon="5.32968">
        <time>2015-05-13T00:09:33Z</time>
      </trkpt>
      <trkpt lat="47.99601" lon="5.32962">
        <time>2015-05-13T00:09:48Z</time>
      </trkpt>
      <trkpt lat="47.99542" lon="5.32967">
        <time>2015-05-13T00:09:56Z</time>
      </trkpt>
      <trkpt lat="47.99519" lon="5.3297">
        <time>2015-05-13T00:09:59Z</time>
      </trkpt>
      <trkpt lat="47.99408" lon="5.32995">
        <time>2015-05-13T00:10:13Z</time>
      </trkpt>
      <trkpt lat="47.99394" lon="5.32997">
        <time>2015-05-13T00:10:15Z</time>
      </trkpt>
      <trkpt lat="47.9933" lon="5.33">
        <time>2015-05-13T00:10:24Z</time>
      </trkpt>
      <trkpt lat="47.99212" lon="5.33002">
        <time>2015-05-13T00:10:39Z</time>
      </trkpt>
      <trkpt lat="47.99106" lon="5.33002">
        <time>2015-05-13T00:10:53Z</time>
      </trkpt>
      <trkpt lat="47.99056" lon="5.32997">
        <time>2015-05-13T00:11:00Z</time>
      </trkpt>
      <trkpt lat="47.99006" lon="5.32987">
        <time>2015-05-13T00:11:07Z</time>
      </trkpt>
      <trkpt lat="47.98912" lon="5.32958">
        <time>2015-05-13T00:11:19Z</time>
      </trkpt>
      <trkpt lat="47.98849" lon="5.32939">
        <time>2015-05-13T00:11:28Z</time>
      </trkpt>
      <trkpt lat="47.98809" lon="5.32934">
        <time>2015-05-13T00:11:33Z</time>
      </trkpt>
      <trkpt lat="47.98774" lon="5.32938">
        <time>2015-05-13T00:11:38Z</time>
      </trkpt>
      <trkpt lat="47.98714" lon="5.32959">
        <time>2015-05-13T00:11:46Z</time>
      </trkpt>
      <trkpt lat="47.9868" lon="5.32968">
        <time>2015-05-13T00:11:50Z</time>
      </trkpt>
      <trkpt lat="47.98641" lon="5.3297">
        <time>2015-05-13T00:11:56Z</time>
      </trkpt>
      <trkpt lat="47.98506" lon="5.32959">
        <time>2015-05-13T00:12:14Z</time>
      </trkpt>
      <trkpt lat="47.98497" lon="5.32959">
        <time>2015-05-13T00:12:15Z</time>
      </trkpt>
      <trkpt lat="47.98493" lon="5.32965">
        <time>2015-05-13T00:12:15Z</time>
      </trkpt>
      <trkpt lat="47.98473" lon="5.32972">
        <time>2015-05-13T00:12:18Z</time>
      </trkpt>
      <trkpt lat="47.98418" lon="5.32976">
        <time>2015-05-13T00:12:25Z</time>
      </trkpt>
      <trkpt lat="47.98365" lon="5.32973">
        <time>2015-05-13T00:12:32Z</time>
      </trkpt>
      <trkpt lat="47.98335" lon="5.32968">
        <time>2015-05-13T00:12:36Z</time>
      </trkpt>
      <trkpt lat="47.98323" lon="5.32962">
        <time>2015-05-13T00:12:38Z</time>
      </trkpt>
      <trkpt lat="47.98309" lon="5.32946">
        <time>2015-05-13T00:12:40Z</time>
      </trkpt>
      <trkpt lat="47.98294" lon="5.32965">
        <time>2015-05-13T00:12:43Z</time>
      </trkpt>
      <trkpt lat="47.9828" lon="5.32967">
        <time>2015-05-13T00:12:45Z</time>
      </trkpt>
      <trkpt lat="47.98126" lon="5.32966">
        <time>2015-05-13T00:13:05Z</time>
      </trkpt>
      <trkpt lat="47.98044" lon="5.3296">
        <time>2015-05-13T00:13:16Z</time>
      </trkpt>
      <trkpt lat="47.97979" lon="5.32956">
        <time>2015-05-13T00:13:25Z</time>
      </trkpt>
      <trkpt lat="47.97948" lon="5.32956">
        <time>2015-05-13T00:13:29Z</time>
      </trkpt>
      <trkpt lat="47.97897" lon="5.32966">
        <time>2015-05-13T00:13:36Z</time>
      </trkpt>
      <trkpt lat="47.97739" lon="5.33006">
        <time>2015-05-13T00:13:57Z</time>
      </trkpt>
      <trkpt lat="47.97739" lon="5.33006">
        <time>2015-05-13T00:13:57Z</time>
      </trkpt>
      <trkpt lat="47.97583" lon="5.33047">
        <time>2015-05-13T00:14:18Z</time>
      </trkpt>
      <trkpt lat="47.97556" lon="5.33061">
        <time>2015-05-13T00:14:21Z</time>
      </trkpt>
      <trkpt lat="47.97534" lon="5.3308">
        <time>2015-05-13T00:14:25Z</time>
      </trkpt>
      <trkpt lat="47.97485" lon="5.33128">
        <time>2015-05-13T00:14:33Z</time>
      </trkpt>
      <trkpt lat="47.97348" lon="5.33243">
        <time>2015-05-13T00:14:53Z</time>
      </trkpt>
      <trkpt lat="47.97309" lon="5.33283">
        <time>2015-05-13T00:15:00Z</time>
      </trkpt>
      <trkpt lat="47.97269" lon="5.33334">
        <time>2015-05-13T00:15:07Z</time>
      </trkpt>
      <trkpt lat="47.97233" lon="5.33374">
        <time>2015-05-13T00:15:12Z</time>
      </trkpt>
      <trkpt lat="47.97207" lon="5.334">
        <time>2015-05-13T00:15:17Z</time>
      </trkpt>
      <trkpt lat="47.97114" lon="5.33444">
        <time>2015-05-13T00:15:30Z</time>
      </trkpt>
      <trkpt lat="47.97078" lon="5.33465">
        <time>2015-05-13T00:15:35Z</time>
      </trkpt>
      <trkpt lat="47.97054" lon="5.33484">
        <time>2015-05-13T00:15:38Z</time>
      </trkpt>
      <trkpt lat="47.97002" lon="5.33522">
        <time>2015-05-13T00:15:46Z</time>
      </trkpt>
      <trkpt lat="47.96946" lon="5.33577">
        <time>2015-05-13T00:15:55Z</time>
      </trkpt>
      <trkpt lat="47.96893" lon="5.33639">
        <time>2015-05-13T00:16:04Z</time>
      </trkpt>
      <trkpt lat="47.96855" lon="5.33676">
        <time>2015-05-13T00:16:10Z</time>
      </trkpt>
      <trkpt lat="47.96815" lon="5.33704">
        <time>2015-05-13T00:16:15Z</time>
      </trkpt>
      <trkpt lat="47.96778" lon="5.33719">
        <time>2015-05-13T00:16:21Z</time>
      </trkpt>
      <trkpt lat="47.96747" lon="5.33722">
        <time>2015-05-13T00:16:25Z</time>
      </trkpt>
      <trkpt lat="47.96712" lon="5.33716">
        <time>2015-05-13T00:16:29Z</time>
      </trkpt>
      <trkpt lat="47.9659" lon="5.33695">
        <time>2015-05-13T00:16:46Z</time>
      </trkpt>
      <trkpt lat="47.96547" lon="5.33687">
        <time>2015-05-13T00:16:51Z</time>
      </trkpt>
      <trkpt lat="47.96521" lon="5.33686">
        <time>2015-05-13T00:16:55Z</time>
      </trkpt>
      <trkpt lat="47.96492" lon="5.33691">
        <time>2015-05-13T00:16:59Z</time>
      </trkpt>
      <trkpt lat="47.96479" lon="5.33694">
        <time>2015-05-13T00:17:00Z</time>
      </trkpt>
      <trkpt lat="47.96387" lon="5.33728">
        <time>2015-05-13T00:17:13Z</time>
      </trkpt>
      <trkpt lat="47.96358" lon="5.33735">
        <time>2015-05-13T00:17:17Z</time>
      </trkpt>
      <trkpt lat="47.96248" lon="5.33749">
        <time>2015-05-13T00:17:31Z</time>
      </trkpt>
      <trkpt lat="47.96217" lon="5.33755">
        <time>2015-05-13T00:17:35Z</time>
      </trkpt>
      <trkpt lat="47.96192" lon="5.33762">
        <time>2015-05-13T00:17:39Z</time>
      </trkpt>
      <trkpt lat="47.96105" lon="5.33822">
        <time>2015-05-13T00:17:51Z</time>
      </trkpt>
      <trkpt lat="47.96036" lon="5.33865">
        <time>2015-05-13T00:18:01Z</time>
      </trkpt>
      <trkpt lat="47.95997" lon="5.33883">
        <time>2015-05-13T00:18:07Z</time>
      </trkpt>
      <trkpt lat="47.95982" lon="5.33886">
        <time>2015-05-13T00:18:09Z</time>
      </trkpt>
      <trkpt lat="47.9587" lon="5.33892">
        <time>2015-05-13T00:18:24Z</time>
      </trkpt>
      <trkpt lat="47.95773" lon="5.33896">
        <time>2015-05-13T00:18:36Z</time>
      </trkpt>
      <trkpt lat="47.95714" lon="5.33891">
        <time>2015-05-13T00:18:44Z</time>
      </trkpt>
      <trkpt lat="47.95672" lon="5.33891">
        <time>2015-05-13T00:18:50Z</time>
      </trkpt>
      <trkpt lat="47.95541" lon="5.33898">
        <time>2015-05-13T00:19:07Z</time>
      </trkpt>
      <trkpt lat="47.95446" lon="5.33903">
        <time>2015-05-13T00:19:20Z</time>
      </trkpt>
      <trkpt lat="47.95422" lon="5.33904">
        <time>2015-05-13T00:19:23Z</time>
      </trkpt>
      <trkpt lat="47.95414" lon="5.33903">
        <time>2015-05-13T00:19:24Z</time>
      </trkpt>
      <trkpt lat="47.95406" lon="5.33898">
        <time>2015-05-13T00:19:25Z</time>
      </trkpt>
      <trkpt lat="47.95393" lon="5.33879">
        <time>2015-05-13T00:19:27Z</time>
      </trkpt>
      <trkpt lat="47.95373" lon="5.33844">
        <time>2015-05-13T00:19:31Z</time>
      </trkpt>
      <trkpt lat="47.95364" lon="5.33831">
        <time>2015-05-13T00:19:33Z</time>
      </trkpt>
      <trkpt lat="47.95344" lon="5.33831">
        <time>2015-05-13T00:19:36Z</time>
      </trkpt>
      <trkpt lat="47.95316" lon="5.33834">
        <time>2015-05-13T00:19:39Z</time>
      </trkpt>
      <trkpt lat="47.95292" lon="5.3385">
        <time>2015-05-13T00:19:43Z</time>
      </trkpt>
      <trkpt lat="47.95267" lon="5.33866">
        <time>2015-05-13T00:19:47Z</time>
      </trkpt>
      <trkpt lat="47.95254" lon="5.33866">
        <time>2015-05-13T00:19:48Z</time>
      </trkpt>
      <trkpt lat="47.95211" lon="5.33846">
        <time>2015-05-13T00:19:54Z</time>
      </trkpt>
      <trkpt lat="47.9505" lon="5.3377">
        <time>2015-05-13T00:20:17Z</time>
      </trkpt>
      <trkpt lat="47.94884" lon="5.33692">
        <time>2015-05-13T00:20:40Z</time>
      </trkpt>
      <trkpt lat="47.94772" lon="5.33637">
        <time>2015-05-13T00:20:55Z</time>
      </trkpt>
      <trkpt lat="47.94743" lon="5.33623">
        <time>2015-05-13T00:20:59Z</time>
      </trkpt>
      <trkpt lat="47.94719" lon="5.33608">
        <time>2015-05-13T00:21:03Z</time>
      </trkpt>
      <trkpt lat="47.94693" lon="5.33587">
        <time>2015-05-13T00:21:06Z</time>
      </trkpt>
      <trkpt lat="47.9466" lon="5.3354">
        <time>2015-05-13T00:21:12Z</time>
      </trkpt>
      <trkpt lat="47.94645" lon="5.33525">
        <time>2015-05-13T00:21:15Z</time>
      </trkpt>
      <trkpt lat="47.94629" lon="5.33524">
        <time>2015-05-13T00:21:17Z</time>
      </trkpt>
      <trkpt lat="47.94619" lon="5.33527">
        <time>2015-05-13T00:21:18Z</time>
      </trkpt>
      <trkpt lat="47.94605" lon="5.3354">
        <time>2015-05-13T00:21:21Z</time>
      </trkpt>
      <trkpt lat="47.94602" lon="5.33536">
        <time>2015-05-13T00:21:21Z</time>
      </trkpt>
      <trkpt lat="47.94602" lon="5.33536">
        <time>2015-05-13T00:21:21Z</time>
      </trkpt>
      <trkpt lat="47.94643" lon="5.33594">
        <time>2015-05-13T00:21:29Z</time>
      </trkpt>
      <trkpt lat="47.94676" lon="5.33646">
        <time>2015-05-13T00:21:35Z</time>
      </trkpt>
      <trkpt lat="47.94698" lon="5.33694">
        <time>2015-05-13T00:21:40Z</time>
      </trkpt>
      <trkpt lat="47.94717" lon="5.33749">
        <time>2015-05-13T00:21:45Z</time>
      </trkpt>
      <trkpt lat="47.94731" lon="5.33804">
        <time>2015-05-13T00:21:51Z</time>
      </trkpt>
      <trkpt lat="47.94741" lon="5.3388">
        <time>2015-05-13T00:21:58Z</time>
      </trkpt>
      <trkpt lat="47.94743" lon="5.3396">
        <time>2015-05-13T00:22:05Z</time>
      </trkpt>
      <trkpt lat="47.94741" lon="5.34068">
        <time>2015-05-13T00:22:14Z</time>
      </trkpt>
      <trkpt lat="47.94744" lon="5.34163">
        <time>2015-05-13T00:22:23Z</time>
      </trkpt>
      <trkpt lat="47.9475" lon="5.34235">
        <time>2015-05-13T00:22:29Z</time>
      </trkpt>
      <trkpt lat="47.94756" lon="5.34336">
        <time>2015-05-13T00:22:38Z</time>
      </trkpt>
      <trkpt lat="47.94766" lon="5.34386">
        <time>2015-05-13T00:22:43Z</time>
      </trkpt>
      <trkpt lat="47.94792" lon="5.34478">
        <time>2015-05-13T00:22:51Z</time>
      </trkpt>
      <trkpt lat="47.94799" lon="5.34521">
        <time>2015-05-13T00:22:55Z</time>
      </trkpt>
      <trkpt lat="47.948" lon="5.34553">
        <time>2015-05-13T00:22:58Z</time>
      </trkpt>
      <trkpt lat="47.94796" lon="5.34593">
        <time>2015-05-13T00:23:02Z</time>
      </trkpt>
      <trkpt lat="47.94783" lon="5.34655">
        <time>2015-05-13T00:23:08Z</time>
      </trkpt>
      <trkpt lat="47.94776" lon="5.34703">
        <time>2015-05-13T00:23:12Z</time>
      </trkpt>
      <trkpt lat="47.94774" lon="5.3475">
        <time>2015-05-13T00:23:16Z</time>
      </trkpt>
      <trkpt lat="47.94772" lon="5.34831">
        <time>2015-05-13T00:23:23Z</time>
      </trkpt>
      <trkpt lat="47.94766" lon="5.34946">
        <time>2015-05-13T00:23:33Z</time>
      </trkpt>
      <trkpt lat="47.94758" lon="5.35107">
        <time>2015-05-13T00:23:48Z</time>
      </trkpt>
      <trkpt lat="47.94753" lon="5.35182">
        <time>2015-05-13T00:23:54Z</time>
      </trkpt>
      <trkpt lat="47.94749" lon="5.35265">
        <time>2015-05-13T00:24:02Z</time>
      </trkpt>
      <trkpt lat="47.94747" lon="5.35494">
        <time>2015-05-13T00:24:22Z</time>
      </trkpt>
      <trkpt lat="47.94741" lon="5.35619">
        <time>2015-05-13T00:24:33Z</time>
      </trkpt>
      <trkpt lat="47.94735" lon="5.357">
        <time>2015-05-13T00:24:40Z</time>
      </trkpt>
      <trkpt lat="47.94725" lon="5.35734">
        <time>2015-05-13T00:24:44Z</time>
      </trkpt>
      <trkpt lat="47.94717" lon="5.35745">
        <time>2015-05-13T00:24:45Z</time>
      </trkpt>
      <trkpt lat="47.94696" lon="5.3576">
        <time>2015-05-13T00:24:48Z</time>
      </trkpt>
      <trkpt lat="47.94685" lon="5.35767">
        <time>2015-05-13T00:24:50Z</time>
      </trkpt>
      <trkpt lat="47.94669" lon="5.3578">
        <time>2015-05-13T00:24:52Z</time>
      </trkpt>
      <trkpt lat="47.94643" lon="5.35809">
        <time>2015-05-13T00:24:56Z</time>
      </trkpt>
      <trkpt lat="47.94622" lon="5.35842">
        <time>2015-05-13T00:25:00Z</time>
      </trkpt>
      <trkpt lat="47.94614" lon="5.35858">
        <time>2015-05-13T00:25:02Z</time>
      </trkpt>
      <trkpt lat="47.94614" lon="5.35858">
        <time>2015-05-13T00:25:02Z</time>
      </trkpt>
      <trkpt lat="47.94595" lon="5.35895">
        <time>2015-05-13T00:25:06Z</time>
      </trkpt>
      <trkpt lat="47.94585" lon="5.35899">
        <time>2015-05-13T00:25:08Z</time>
      </trkpt>
      <trkpt lat="47.94575" lon="5.35907">
        <time>2015-05-13T00:25:09Z</time>
      </trkpt>
      <trkpt lat="47.94536" lon="5.35945">
        <time>2015-05-13T00:25:15Z</time>
      </trkpt>
      <trkpt lat="47.9452" lon="5.35962">
        <time>2015-05-13T00:25:18Z</time>
      </trkpt>
      <trkpt lat="47.94506" lon="5.35939">
        <time>2015-05-13T00:25:21Z</time>
      </trkpt>
      <trkpt lat="47.94478" lon="5.35897">
        <time>2015-05-13T00:25:26Z</time>
      </trkpt>
      <trkpt lat="47.94462" lon="5.3588">
        <time>2015-05-13T00:25:29Z</time>
      </trkpt>
      <trkpt lat="47.94436" lon="5.35858">
        <time>2015-05-13T00:25:33Z</time>
      </trkpt>
      <trkpt lat="47.94424" lon="5.35848">
        <time>2015-05-13T00:25:34Z</time>
      </trkpt>
      <trkpt lat="47.94421" lon="5.35835">
        <time>2015-05-13T00:25:36Z</time>
      </trkpt>
      <trkpt lat="47.94419" lon="5.35812">
        <time>2015-05-13T00:25:38Z</time>
      </trkpt>
      <trkpt lat="47.94424" lon="5.35776">
        <time>2015-05-13T00:25:41Z</time>
      </trkpt>
      <trkpt lat="47.94424" lon="5.35739">
        <time>2015-05-13T00:25:44Z</time>
      </trkpt>
      <trkpt lat="47.94415" lon="5.35649">
        <time>2015-05-13T00:25:52Z</time>
      </trkpt>
      <trkpt lat="47.9441" lon="5.35618">
        <time>2015-05-13T00:25:55Z</time>
      </trkpt>
      <trkpt lat="47.944" lon="5.35599">
        <time>2015-05-13T00:25:57Z</time>
      </trkpt>
      <trkpt lat="47.94384" lon="5.35583">
        <time>2015-05-13T00:26:00Z</time>
      </trkpt>
      <trkpt lat="47.94364" lon="5.35565">
        <time>2015-05-13T00:26:03Z</time>
      </trkpt>
      <trkpt lat="47.94348" lon="5.35534">
        <time>2015-05-13T00:26:06Z</time>
      </trkpt>
      <trkpt lat="47.94342" lon="5.35508">
        <time>2015-05-13T00:26:09Z</time>
      </trkpt>
      <trkpt lat="47.94335" lon="5.35455">
        <time>2015-05-13T00:26:13Z</time>
      </trkpt>
      <trkpt lat="47.94323" lon="5.35342">
        <time>2015-05-13T00:26:24Z</time>
      </trkpt>
      <trkpt lat="47.94314" lon="5.35304">
        <time>2015-05-13T00:26:27Z</time>
      </trkpt>
      <trkpt lat="47.94298" lon="5.3527">
        <time>2015-05-13T00:26:31Z</time>
      </trkpt>
      <trkpt lat="47.94216" lon="5.3516">
        <time>2015-05-13T00:26:45Z</time>
      </trkpt>
      <trkpt lat="47.94143" lon="5.35061">
        <time>2015-05-13T00:26:58Z</time>
      </trkpt>
      <trkpt lat="47.94101" lon="5.35018">
        <time>2015-05-13T00:27:05Z</time>
      </trkpt>
      <trkpt lat="47.9403" lon="5.34955">
        <time>2015-05-13T00:27:16Z</time>
      </trkpt>
      <trkpt lat="47.93972" lon="5.3491">
        <time>2015-05-13T00:27:25Z</time>
      </trkpt>
      <trkpt lat="47.93955" lon="5.349">
        <time>2015-05-13T00:27:27Z</time>
      </trkpt>
      <trkpt lat="47.93935" lon="5.34892">
        <time>2015-05-13T00:27:30Z</time>
      </trkpt>
      <trkpt lat="47.93836" lon="5.34857">
        <time>2015-05-13T00:27:43Z</time>
      </trkpt>
      <trkpt lat="47.9381" lon="5.3485">
        <time>2015-05-13T00:27:47Z</time>
      </trkpt>
      <trkpt lat="47.93794" lon="5.34849">
        <time>2015-05-13T00:27:49Z</time>
      </trkpt>
      <trkpt lat="47.93769" lon="5.34852">
        <time>2015-05-13T00:27:52Z</time>
      </trkpt>
      <trkpt lat="47.93691" lon="5.34881">
        <time>2015-05-13T00:28:03Z</time>
      </trkpt>
      <trkpt lat="47.93638" lon="5.34904">
        <time>2015-05-13T00:28:10Z</time>
      </trkpt>
      <trkpt lat="47.93559" lon="5.34953">
        <time>2015-05-13T00:28:21Z</time>
      </trkpt>
      <trkpt lat="47.93484" lon="5.35002">
        <time>2015-05-13T00:28:32Z</time>
      </trkpt>
      <trkpt lat="47.93382" lon="5.35065">
        <time>2015-05-13T00:28:47Z</time>
      </trkpt>
      <trkpt lat="47.93285" lon="5.35128">
        <time>2015-05-13T00:29:01Z</time>
      </trkpt>
      <trkpt lat="47.92915" lon="5.35362">
        <time>2015-05-13T00:29:54Z</time>
      </trkpt>
      <trkpt lat="47.92813" lon="5.35423">
        <time>2015-05-13T00:30:08Z</time>
      </trkpt>
      <trkpt lat="47.92766" lon="5.35453">
        <time>2015-05-13T00:30:15Z</time>
      </trkpt>
      <trkpt lat="47.92746" lon="5.35463">
        <time>2015-05-13T00:30:18Z</time>
      </trkpt>
      <trkpt lat="47.92737" lon="5.35465">
        <time>2015-05-13T00:30:19Z</time>
      </trkpt>
      <trkpt lat="47.92726" lon="5.35467">
        <time>2015-05-13T00:30:21Z</time>
      </trkpt>
      <trkpt lat="47.92714" lon="5.35466">
        <time>2015-05-13T00:30:22Z</time>
      </trkpt>
      <trkpt lat="47.92703" lon="5.35462">
        <time>2015-05-13T00:30:24Z</time>
      </trkpt>
      <trkpt lat="47.92695" lon="5.35455">
        <time>2015-05-13T00:30:25Z</time>
      </trkpt>
      <trkpt lat="47.92623" lon="5.35381">
        <time>2015-05-13T00:30:37Z</time>
      </trkpt>
      <trkpt lat="47.92609" lon="5.35367">
        <time>2015-05-13T00:30:39Z</time>
      </trkpt>
      <trkpt lat="47.92609" lon="5.35367">
        <time>2015-05-13T00:30:39Z</time>
      </trkpt>
      <trkpt lat="47.92532" lon="5.35288">
        <time>2015-05-13T00:30:51Z</time>
      </trkpt>
      <trkpt lat="47.92499" lon="5.35277">
        <time>2015-05-13T00:30:56Z</time>
      </trkpt>
      <trkpt lat="47.92464" lon="5.35268">
        <time>2015-05-13T00:31:00Z</time>
      </trkpt>
      <trkpt lat="47.9244" lon="5.35256">
        <time>2015-05-13T00:31:04Z</time>
      </trkpt>
      <trkpt lat="47.9241" lon="5.35228">
        <time>2015-05-13T00:31:08Z</time>
      </trkpt>
      <trkpt lat="47.92365" lon="5.35182">
        <time>2015-05-13T00:31:16Z</time>
      </trkpt>
      <trkpt lat="47.92312" lon="5.3513">
        <time>2015-05-13T00:31:24Z</time>
      </trkpt>
      <trkpt lat="47.92285" lon="5.35113">
        <time>2015-05-13T00:31:28Z</time>
      </trkpt>
      <trkpt lat="47.92216" lon="5.35095">
        <time>2015-05-13T00:31:37Z</time>
      </trkpt>
      <trkpt lat="47.92202" lon="5.35088">
        <time>2015-05-13T00:31:39Z</time>
      </trkpt>
      <trkpt lat="47.92194" lon="5.35082">
        <time>2015-05-13T00:31:40Z</time>
      </trkpt>
      <trkpt lat="47.92168" lon="5.35058">
        <time>2015-05-13T00:31:44Z</time>
      </trkpt>
      <trkpt lat="47.92141" lon="5.35028">
        <time>2015-05-13T00:31:49Z</time>
      </trkpt>
      <trkpt lat="47.92133" lon="5.35021">
        <time>2015-05-13T00:31:50Z</time>
      </trkpt>
      <trkpt lat="47.92119" lon="5.35017">
        <time>2015-05-13T00:31:52Z</time>
      </trkpt>
      <trkpt lat="47.92096" lon="5.35015">
        <time>2015-05-13T00:31:55Z</time>
      </trkpt>
      <trkpt lat="47.9206" lon="5.3501">
        <time>2015-05-13T00:32:00Z</time>
      </trkpt>
      <trkpt lat="47.92035" lon="5.35005">
        <time>2015-05-13T00:32:03Z</time>
      </trkpt>
      <trkpt lat="47.92023" lon="5.35036">
        <time>2015-05-13T00:32:06Z</time>
      </trkpt>
      <trkpt lat="47.91992" lon="5.35086">
        <time>2015-05-13T00:32:12Z</time>
      </trkpt>
      <trkpt lat="47.91962" lon="5.35124">
        <time>2015-05-13T00:32:17Z</time>
      </trkpt>
      <trkpt lat="47.91923" lon="5.35182">
        <time>2015-05-13T00:32:25Z</time>
      </trkpt>
      <trkpt lat="47.91909" lon="5.35214">
        <time>2015-05-13T00:32:28Z</time>
      </trkpt>
      <trkpt lat="47.91903" lon="5.35242">
        <time>2015-05-13T00:32:31Z</time>
      </trkpt>
      <trkpt lat="47.91892" lon="5.35317">
        <time>2015-05-13T00:32:37Z</time>
      </trkpt>
      <trkpt lat="47.91886" lon="5.35356">
        <time>2015-05-13T00:32:41Z</time>
      </trkpt>
      <trkpt lat="47.91876" lon="5.35398">
        <time>2015-05-13T00:32:45Z</time>
      </trkpt>
      <trkpt lat="47.91849" lon="5.35483">
        <time>2015-05-13T00:32:53Z</time>
      </trkpt>
      <trkpt lat="47.91833" lon="5.3554">
        <time>2015-05-13T00:32:59Z</time>
      </trkpt>
      <trkpt lat="47.91826" lon="5.35591">
        <time>2015-05-13T00:33:03Z</time>
      </trkpt>
      <trkpt lat="47.91817" lon="5.35635">
        <time>2015-05-13T00:33:07Z</time>
      </trkpt>
      <trkpt lat="47.91795" lon="5.35694">
        <time>2015-05-13T00:33:13Z</time>
      </trkpt>
      <trkpt lat="47.91774" lon="5.35733">
        <time>2015-05-13T00:33:18Z</time>
      </trkpt>
      <trkpt lat="47.91759" lon="5.35755">
        <time>2015-05-13T00:33:21Z</time>
      </trkpt>
      <trkpt lat="47.91703" lon="5.35822">
        <time>2015-05-13T00:33:30Z</time>
      </trkpt>
      <trkpt lat="47.91678" lon="5.35854">
        <time>2015-05-13T00:33:34Z</time>
      </trkpt>
      <trkpt lat="47.91647" lon="5.35906">
        <time>2015-05-13T00:33:41Z</time>
      </trkpt>
      <trkpt lat="47.91631" lon="5.35945">
        <time>2015-05-13T00:33:45Z</time>
      </trkpt>
      <trkpt lat="47.91619" lon="5.35986">
        <time>2015-05-13T00:33:49Z</time>
      </trkpt>
      <trkpt lat="47.91613" lon="5.3602">
        <time>2015-05-13T00:33:52Z</time>
      </trkpt>
      <trkpt lat="47.91606" lon="5.36086">
        <time>2015-05-13T00:33:58Z</time>
      </trkpt>
      <trkpt lat="47.916" lon="5.36212">
        <time>2015-05-13T00:34:09Z</time>
      </trkpt>
      <trkpt lat="47.91602" lon="5.36251">
        <time>2015-05-13T00:34:12Z</time>
      </trkpt>
      <trkpt lat="47.91607" lon="5.36282">
        <time>2015-05-13T00:34:15Z</time>
      </trkpt>
      <trkpt lat="47.91612" lon="5.36305">
        <time>2015-05-13T00:34:17Z</time>
      </trkpt>
      <trkpt lat="47.91613" lon="5.3632">
        <time>2015-05-13T00:34:19Z</time>
      </trkpt>
      <trkpt lat="47.9161" lon="5.36345">
        <time>2015-05-13T00:34:21Z</time>
      </trkpt>
      <trkpt lat="47.91601" lon="5.36373">
        <time>2015-05-13T00:34:24Z</time>
      </trkpt>
      <trkpt lat="47.91592" lon="5.36386">
        <time>2015-05-13T00:34:25Z</time>
      </trkpt>
      <trkpt lat="47.91572" lon="5.36402">
        <time>2015-05-13T00:34:28Z</time>
      </trkpt>
      <trkpt lat="47.91529" lon="5.36434">
        <time>2015-05-13T00:34:35Z</time>
      </trkpt>
      <trkpt lat="47.91516" lon="5.36453">
        <time>2015-05-13T00:34:37Z</time>
      </trkpt>
      <trkpt lat="47.91503" lon="5.3648">
        <time>2015-05-13T00:34:40Z</time>
      </trkpt>
      <trkpt lat="47.91496" lon="5.36507">
        <time>2015-05-13T00:34:42Z</time>
      </trkpt>
      <trkpt lat="47.91493" lon="5.36544">
        <time>2015-05-13T00:34:46Z</time>
      </trkpt>
      <trkpt lat="47.91496" lon="5.36579">
        <time>2015-05-13T00:34:49Z</time>
      </trkpt>
      <trkpt lat="47.91502" lon="5.36598">
        <time>2015-05-13T00:34:51Z</time>
      </trkpt>
      <trkpt lat="47.91517" lon="5.36649">
        <time>2015-05-13T00:34:56Z</time>
      </trkpt>
      <trkpt lat="47.91519" lon="5.36677">
        <time>2015-05-13T00:34:58Z</time>
      </trkpt>
      <trkpt lat="47.91514" lon="5.36704">
        <time>2015-05-13T00:35:01Z</time>
      </trkpt>
      <trkpt lat="47.91506" lon="5.36722">
        <time>2015-05-13T00:35:03Z</time>
      </trkpt>
      <trkpt lat="47.91497" lon="5.36734">
        <time>2015-05-13T00:35:04Z</time>
      </trkpt>
      <trkpt lat="47.91489" lon="5.36741">
        <time>2015-05-13T00:35:05Z</time>
      </trkpt>
      <trkpt lat="47.91474" lon="5.36748">
        <time>2015-05-13T00:35:08Z</time>
      </trkpt>
      <trkpt lat="47.9146" lon="5.36749">
        <time>2015-05-13T00:35:09Z</time>
      </trkpt>
      <trkpt lat="47.91438" lon="5.36739">
        <time>2015-05-13T00:35:12Z</time>
      </trkpt>
      <trkpt lat="47.91419" lon="5.36726">
        <time>2015-05-13T00:35:15Z</time>
      </trkpt>
      <trkpt lat="47.91405" lon="5.36724">
        <time>2015-05-13T00:35:17Z</time>
      </trkpt>
      <trkpt lat="47.91405" lon="5.36724">
        <time>2015-05-13T00:35:17Z</time>
      </trkpt>
      <trkpt lat="47.91396" lon="5.36725">
        <time>2015-05-13T00:35:18Z</time>
      </trkpt>
      <trkpt lat="47.91385" lon="5.36729">
        <time>2015-05-13T00:35:20Z</time>
      </trkpt>
      <trkpt lat="47.91374" lon="5.36737">
        <time>2015-05-13T00:35:21Z</time>
      </trkpt>
      <trkpt lat="47.91366" lon="5.36749">
        <time>2015-05-13T00:35:23Z</time>
      </trkpt>
      <trkpt lat="47.9136" lon="5.36763">
        <time>2015-05-13T00:35:24Z</time>
      </trkpt>
      <trkpt lat="47.91356" lon="5.36779">
        <time>2015-05-13T00:35:26Z</time>
      </trkpt>
      <trkpt lat="47.91354" lon="5.368">
        <time>2015-05-13T00:35:28Z</time>
      </trkpt>
      <trkpt lat="47.91355" lon="5.36832">
        <time>2015-05-13T00:35:31Z</time>
      </trkpt>
      <trkpt lat="47.91364" lon="5.36936">
        <time>2015-05-13T00:35:40Z</time>
      </trkpt>
      <trkpt lat="47.9137" lon="5.36997">
        <time>2015-05-13T00:35:45Z</time>
      </trkpt>
      <trkpt lat="47.9137" lon="5.37053">
        <time>2015-05-13T00:35:50Z</time>
      </trkpt>
      <trkpt lat="47.91368" lon="5.37096">
        <time>2015-05-13T00:35:54Z</time>
      </trkpt>
      <trkpt lat="47.91358" lon="5.37185">
        <time>2015-05-13T00:36:02Z</time>
      </trkpt>
      <trkpt lat="47.91341" lon="5.37348">
        <time>2015-05-13T00:36:17Z</time>
      </trkpt>
      <trkpt lat="47.9133" lon="5.37471">
        <time>2015-05-13T00:36:28Z</time>
      </trkpt>
      <trkpt lat="47.91331" lon="5.3758">
        <time>2015-05-13T00:36:37Z</time>
      </trkpt>
      <trkpt lat="47.91337" lon="5.37739">
        <time>2015-05-13T00:36:51Z</time>
      </trkpt>
      <trkpt lat="47.9134" lon="5.37808">
        <time>2015-05-13T00:36:58Z</time>
      </trkpt>
      <trkpt lat="47.91345" lon="5.37847">
        <time>2015-05-13T00:37:01Z</time>
      </trkpt>
      <trkpt lat="47.91352" lon="5.37874">
        <time>2015-05-13T00:37:04Z</time>
      </trkpt>
      <trkpt lat="47.91363" lon="5.37903">
        <time>2015-05-13T00:37:07Z</time>
      </trkpt>
      <trkpt lat="47.91385" lon="5.3795">
        <time>2015-05-13T00:37:12Z</time>
      </trkpt>
      <trkpt lat="47.91393" lon="5.37982">
        <time>2015-05-13T00:37:15Z</time>
      </trkpt>
      <trkpt lat="47.91387" lon="5.38017">
        <time>2015-05-13T00:37:18Z</time>
      </trkpt>
      <trkpt lat="47.91377" lon="5.38033">
        <time>2015-05-13T00:37:20Z</time>
      </trkpt>
      <trkpt lat="47.91376" lon="5.38035">
        <time>2015-05-13T00:37:20Z</time>
      </trkpt>
      <trkpt lat="47.91368" lon="5.38034">
        <time>2015-05-13T00:37:21Z</time>
      </trkpt>
      <trkpt lat="47.91363" lon="5.38032">
        <time>2015-05-13T00:37:22Z</time>
      </trkpt>
      <trkpt lat="47.91362" lon="5.38038">
        <time>2015-05-13T00:37:22Z</time>
      </trkpt>
      <trkpt lat="47.91361" lon="5.38048">
        <time>2015-05-13T00:37:23Z</time>
      </trkpt>
      <trkpt lat="47.91356" lon="5.38057">
        <time>2015-05-13T00:37:24Z</time>
      </trkpt>
      <trkpt lat="47.91337" lon="5.38069">
        <time>2015-05-13T00:37:27Z</time>
      </trkpt>
      <trkpt lat="47.91312" lon="5.38086">
        <time>2015-05-13T00:37:31Z</time>
      </trkpt>
      <trkpt lat="47.91289" lon="5.38106">
        <time>2015-05-13T00:37:34Z</time>
      </trkpt>
      <trkpt lat="47.91262" lon="5.38132">
        <time>2015-05-13T00:37:38Z</time>
      </trkpt>
      <trkpt lat="47.91245" lon="5.38156">
        <time>2015-05-13T00:37:41Z</time>
      </trkpt>
      <trkpt lat="47.91219" lon="5.38208">
        <time>2015-05-13T00:37:47Z</time>
      </trkpt>
      <trkpt lat="47.91204" lon="5.38227">
        <time>2015-05-13T00:37:50Z</time>
      </trkpt>
      <trkpt lat="47.91201" lon="5.38235">
        <time>2015-05-13T00:37:51Z</time>
      </trkpt>
      <trkpt lat="47.912" lon="5.38241">
        <time>2015-05-13T00:37:51Z</time>
      </trkpt>
      <trkpt lat="47.91198" lon="5.3824">
        <time>2015-05-13T00:37:51Z</time>
      </trkpt>
      <trkpt lat="47.91189" lon="5.38238">
        <time>2015-05-13T00:37:53Z</time>
      </trkpt>
      <trkpt lat="47.91149" lon="5.38228">
        <time>2015-05-13T00:37:58Z</time>
      </trkpt>
      <trkpt lat="47.91018" lon="5.38201">
        <time>2015-05-13T00:38:15Z</time>
      </trkpt>
      <trkpt lat="47.90849" lon="5.38168">
        <time>2015-05-13T00:38:38Z</time>
      </trkpt>
      <trkpt lat="47.90825" lon="5.38166">
        <time>2015-05-13T00:38:41Z</time>
      </trkpt>
      <trkpt lat="47.90818" lon="5.3818">
        <time>2015-05-13T00:38:43Z</time>
      </trkpt>
      <trkpt lat="47.90811" lon="5.38185">
        <time>2015-05-13T00:38:44Z</time>
      </trkpt>
      <trkpt lat="47.908" lon="5.38204">
        <time>2015-05-13T00:38:46Z</time>
      </trkpt>
      <trkpt lat="47.90776" lon="5.38287">
        <time>2015-05-13T00:38:54Z</time>
      </trkpt>
      <trkpt lat="47.90762" lon="5.38338">
        <time>2015-05-13T00:38:59Z</time>
      </trkpt>
      <trkpt lat="47.90744" lon="5.3838">
        <time>2015-05-13T00:39:03Z</time>
      </trkpt>
      <trkpt lat="47.90734" lon="5.38394">
        <time>2015-05-13T00:39:05Z</time>
      </trkpt>
      <trkpt lat="47.90725" lon="5.38402">
        <time>2015-05-13T00:39:06Z</time>
      </trkpt>
      <trkpt lat="47.90708" lon="5.38412">
        <time>2015-05-13T00:39:09Z</time>
      </trkpt>
      <trkpt lat="47.90692" lon="5.38417">
        <time>2015-05-13T00:39:11Z</time>
      </trkpt>
      <trkpt lat="47.90675" lon="5.38418">
        <time>2015-05-13T00:39:13Z</time>
      </trkpt>
      <trkpt lat="47.90659" lon="5.38414">
        <time>2015-05-13T00:39:15Z</time>
      </trkpt>
      <trkpt lat="47.90644" lon="5.38405">
        <time>2015-05-13T00:39:18Z</time>
      </trkpt>
      <trkpt lat="47.90631" lon="5.3839">
        <time>2015-05-13T00:39:20Z</time>
      </trkpt>
      <trkpt lat="47.90622" lon="5.38377">
        <time>2015-05-13T00:39:21Z</time>
      </trkpt>
      <trkpt lat="47.90611" lon="5.38353">
        <time>2015-05-13T00:39:24Z</time>
      </trkpt>
      <trkpt lat="47.90603" lon="5.38337">
        <time>2015-05-13T00:39:26Z</time>
      </trkpt>
      <trkpt lat="47.906" lon="5.38317">
        <time>2015-05-13T00:39:28Z</time>
      </trkpt>
      <trkpt lat="47.90591" lon="5.3828">
        <time>2015-05-13T00:39:31Z</time>
      </trkpt>
      <trkpt lat="47.90562" lon="5.381">
        <time>2015-05-13T00:39:47Z</time>
      </trkpt>
      <trkpt lat="47.90556" lon="5.38032">
        <time>2015-05-13T00:39:54Z</time>
      </trkpt>
      <trkpt lat="47.90556" lon="5.38005">
        <time>2015-05-13T00:39:56Z</time>
      </trkpt>
      <trkpt lat="47.90561" lon="5.37968">
        <time>2015-05-13T00:39:59Z</time>
      </trkpt>
      <trkpt lat="47.90583" lon="5.3785">
        <time>2015-05-13T00:40:10Z</time>
      </trkpt>
      <trkpt lat="47.90598" lon="5.3777">
        <time>2015-05-13T00:40:17Z</time>
      </trkpt>
      <trkpt lat="47.90609" lon="5.37701">
        <time>2015-05-13T00:40:24Z</time>
      </trkpt>
      <trkpt lat="47.90612" lon="5.37648">
        <time>2015-05-13T00:40:28Z</time>
      </trkpt>
      <trkpt lat="47.90612" lon="5.37648">
        <time>2015-05-13T00:40:28Z</time>
      </trkpt>
      <trkpt lat="47.90617" lon="5.37576">
        <time>2015-05-13T00:40:35Z</time>
      </trkpt>
      <trkpt lat="47.9062" lon="5.37473">
        <time>2015-05-13T00:40:44Z</time>
      </trkpt>
      <trkpt lat="47.90617" lon="5.37436">
        <time>2015-05-13T00:40:47Z</time>
      </trkpt>
      <trkpt lat="47.90605" lon="5.37382">
        <time>2015-05-13T00:40:52Z</time>
      </trkpt>
      <trkpt lat="47.90592" lon="5.37328">
        <time>2015-05-13T00:40:57Z</time>
      </trkpt>
      <trkpt lat="47.90586" lon="5.37282">
        <time>2015-05-13T00:41:02Z</time>
      </trkpt>
      <trkpt lat="47.90586" lon="5.3722">
        <time>2015-05-13T00:41:07Z</time>
      </trkpt>
      <trkpt lat="47.90587" lon="5.37148">
        <time>2015-05-13T00:41:13Z</time>
      </trkpt>
      <trkpt lat="47.90585" lon="5.37106">
        <time>2015-05-13T00:41:17Z</time>
      </trkpt>
      <trkpt lat="47.90577" lon="5.37075">
        <time>2015-05-13T00:41:20Z</time>
      </trkpt>
      <trkpt lat="47.90538" lon="5.3699">
        <time>2015-05-13T00:41:29Z</time>
      </trkpt>
      <trkpt lat="47.90534" lon="5.36969">
        <time>2015-05-13T00:41:31Z</time>
      </trkpt>
      <trkpt lat="47.90533" lon="5.3695">
        <time>2015-05-13T00:41:33Z</time>
      </trkpt>
      <trkpt lat="47.90534" lon="5.36933">
        <time>2015-05-13T00:41:34Z</time>
      </trkpt>
      <trkpt lat="47.90538" lon="5.36917">
        <time>2015-05-13T00:41:36Z</time>
      </trkpt>
      <trkpt lat="47.90546" lon="5.36896">
        <time>2015-05-13T00:41:38Z</time>
      </trkpt>
      <trkpt lat="47.90601" lon="5.36815">
        <time>2015-05-13T00:41:48Z</time>
      </trkpt>
      <trkpt lat="47.90621" lon="5.36778">
        <time>2015-05-13T00:41:52Z</time>
      </trkpt>
      <trkpt lat="47.90631" lon="5.36745">
        <time>2015-05-13T00:41:56Z</time>
      </trkpt>
      <trkpt lat="47.90634" lon="5.36705">
        <time>2015-05-13T00:41:59Z</time>
      </trkpt>
      <trkpt lat="47.90632" lon="5.36686">
        <time>2015-05-13T00:42:01Z</time>
      </trkpt>
      <trkpt lat="47.9061" lon="5.36593">
        <time>2015-05-13T00:42:10Z</time>
      </trkpt>
      <trkpt lat="47.90598" lon="5.36542">
        <time>2015-05-13T00:42:15Z</time>
      </trkpt>
      <trkpt lat="47.90597" lon="5.36516">
        <time>2015-05-13T00:42:17Z</time>
      </trkpt>
      <trkpt lat="47.90599" lon="5.36491">
        <time>2015-05-13T00:42:19Z</time>
      </trkpt>
      <trkpt lat="47.90608" lon="5.36443">
        <time>2015-05-13T00:42:23Z</time>
      </trkpt>
      <trkpt lat="47.90613" lon="5.36404">
        <time>2015-05-13T00:42:27Z</time>
      </trkpt>
      <trkpt lat="47.90613" lon="5.36377">
        <time>2015-05-13T00:42:29Z</time>
      </trkpt>
      <trkpt lat="47.90608" lon="5.36338">
        <time>2015-05-13T00:42:33Z</time>
      </trkpt>
      <trkpt lat="47.906" lon="5.3631">
        <time>2015-05-13T00:42:36Z</time>
      </trkpt>
      <trkpt lat="47.9059" lon="5.36288">
        <time>2015-05-13T00:42:38Z</time>
      </trkpt>
      <trkpt lat="47.9057" lon="5.36258">
        <time>2015-05-13T00:42:42Z</time>
      </trkpt>
      <trkpt lat="47.90527" lon="5.36207">
        <time>2015-05-13T00:42:49Z</time>
      </trkpt>
      <trkpt lat="47.90509" lon="5.36189">
        <time>2015-05-13T00:42:52Z</time>
      </trkpt>
      <trkpt lat="47.90432" lon="5.36128">
        <time>2015-05-13T00:43:03Z</time>
      </trkpt>
      <trkpt lat="47.90347" lon="5.36059">
        <time>2015-05-13T00:43:16Z</time>
      </trkpt>
      <trkpt lat="47.90236" lon="5.35978">
        <time>2015-05-13T00:43:32Z</time>
      </trkpt>
      <trkpt lat="47.90222" lon="5.35965">
        <time>2015-05-13T00:43:35Z</time>
      </trkpt>
      <trkpt lat="47.90169" lon="5.35905">
        <time>2015-05-13T00:43:43Z</time>
      </trkpt>
      <trkpt lat="47.90139" lon="5.35877">
        <time>2015-05-13T00:43:48Z</time>
      </trkpt>
      <trkpt lat="47.901" lon="5.35854">
        <time>2015-05-13T00:43:54Z</time>
      </trkpt>
      <trkpt lat="47.89959" lon="5.35789">
        <time>2015-05-13T00:44:13Z</time>
      </trkpt>
      <trkpt lat="47.89933" lon="5.35772">
        <time>2015-05-13T00:44:17Z</time>
      </trkpt>
      <trkpt lat="47.89876" lon="5.35729">
        <time>2015-05-13T00:44:25Z</time>
      </trkpt>
      <trkpt lat="47.89857" lon="5.35714">
        <time>2015-05-13T00:44:28Z</time>
      </trkpt>
      <trkpt lat="47.89857" lon="5.35714">
        <time>2015-05-13T00:44:28Z</time>
      </trkpt>
      <trkpt lat="47.89813" lon="5.3568">
        <time>2015-05-13T00:44:35Z</time>
      </trkpt>
      <trkpt lat="47.89803" lon="5.35655">
        <time>2015-05-13T00:44:37Z</time>
      </trkpt>
      <trkpt lat="47.89792" lon="5.35616">
        <time>2015-05-13T00:44:41Z</time>
      </trkpt>
      <trkpt lat="47.89779" lon="5.35553">
        <time>2015-05-13T00:44:47Z</time>
      </trkpt>
      <trkpt lat="47.89765" lon="5.3551">
        <time>2015-05-13T00:44:51Z</time>
      </trkpt>
      <trkpt lat="47.8975" lon="5.35466">
        <time>2015-05-13T00:44:56Z</time>
      </trkpt>
      <trkpt lat="47.8974" lon="5.35423">
        <time>2015-05-13T00:45:00Z</time>
      </trkpt>
      <trkpt lat="47.89728" lon="5.35443">
        <time>2015-05-13T00:45:02Z</time>
      </trkpt>
      <trkpt lat="47.8971" lon="5.35467">
        <time>2015-05-13T00:45:05Z</time>
      </trkpt>
      <trkpt lat="47.89678" lon="5.35502">
        <time>2015-05-13T00:45:10Z</time>
      </trkpt>
      <trkpt lat="47.89634" lon="5.35554">
        <time>2015-05-13T00:45:18Z</time>
      </trkpt>
      <trkpt lat="47.89627" lon="5.35548">
        <time>2015-05-13T00:45:19Z</time>
      </trkpt>
      <trkpt lat="47.89499" lon="5.35454">
        <time>2015-05-13T00:45:38Z</time>
      </trkpt>
      <trkpt lat="47.89385" lon="5.35376">
        <time>2015-05-13T00:45:54Z</time>
      </trkpt>
      <trkpt lat="47.89363" lon="5.35359">
        <time>2015-05-13T00:45:58Z</time>
      </trkpt>
      <trkpt lat="47.89333" lon="5.3533">
        <time>2015-05-13T00:46:02Z</time>
      </trkpt>
      <trkpt lat="47.89297" lon="5.35293">
        <time>2015-05-13T00:46:08Z</time>
      </trkpt>
      <trkpt lat="47.89248" lon="5.35257">
        <time>2015-05-13T00:46:15Z</time>
      </trkpt>
      <trkpt lat="47.89038" lon="5.35095">
        <time>2015-05-13T00:46:47Z</time>
      </trkpt>
      <trkpt lat="47.8902" lon="5.3508">
        <time>2015-05-13T00:46:49Z</time>
      </trkpt>
      <trkpt lat="47.89004" lon="5.3506">
        <time>2015-05-13T00:46:52Z</time>
      </trkpt>
      <trkpt lat="47.88996" lon="5.3507">
        <time>2015-05-13T00:46:53Z</time>
      </trkpt>
      <trkpt lat="47.88952" lon="5.35035">
        <time>2015-05-13T00:47:00Z</time>
      </trkpt>
      <trkpt lat="47.88821" lon="5.34943">
        <time>2015-05-13T00:47:19Z</time>
      </trkpt>
      <trkpt lat="47.88698" lon="5.34854">
        <time>2015-05-13T00:47:37Z</time>
      </trkpt>
      <trkpt lat="47.88662" lon="5.3483">
        <time>2015-05-13T00:47:42Z</time>
      </trkpt>
      <trkpt lat="47.88619" lon="5.34805">
        <time>2015-05-13T00:47:48Z</time>
      </trkpt>
      <trkpt lat="47.88578" lon="5.34772">
        <time>2015-05-13T00:47:55Z</time>
      </trkpt>
      <trkpt lat="47.88557" lon="5.34747">
        <time>2015-05-13T00:47:58Z</time>
      </trkpt>
      <trkpt lat="47.88546" lon="5.34725">
        <time>2015-05-13T00:48:01Z</time>
      </trkpt>
      <trkpt lat="47.88542" lon="5.34703">
        <time>2015-05-13T00:48:03Z</time>
      </trkpt>
      <trkpt lat="47.88542" lon="5.34679">
        <time>2015-05-13T00:48:05Z</time>
      </trkpt>
      <trkpt lat="47.88536" lon="5.34673">
        <time>2015-05-13T00:48:06Z</time>
      </trkpt>
      <trkpt lat="47.88529" lon="5.34665">
        <time>2015-05-13T00:48:07Z</time>
      </trkpt>
      <trkpt lat="47.88522" lon="5.34651">
        <time>2015-05-13T00:48:08Z</time>
      </trkpt>
      <trkpt lat="47.8851" lon="5.34594">
        <time>2015-05-13T00:48:14Z</time>
      </trkpt>
      <trkpt lat="47.88499" lon="5.3452">
        <time>2015-05-13T00:48:20Z</time>
      </trkpt>
      <trkpt lat="47.88488" lon="5.34483">
        <time>2015-05-13T00:48:24Z</time>
      </trkpt>
      <trkpt lat="47.88467" lon="5.34442">
        <time>2015-05-13T00:48:29Z</time>
      </trkpt>
      <trkpt lat="47.88426" lon="5.34376">
        <time>2015-05-13T00:48:37Z</time>
      </trkpt>
      <trkpt lat="47.88387" lon="5.34311">
        <time>2015-05-13T00:48:44Z</time>
      </trkpt>
      <trkpt lat="47.88362" lon="5.34267">
        <time>2015-05-13T00:48:49Z</time>
      </trkpt>
      <trkpt lat="47.88326" lon="5.34167">
        <time>2015-05-13T00:48:59Z</time>
      </trkpt>
      <trkpt lat="47.88317" lon="5.34148">
        <time>2015-05-13T00:49:02Z</time>
      </trkpt>
      <trkpt lat="47.88307" lon="5.34134">
        <time>2015-05-13T00:49:03Z</time>
      </trkpt>
      <trkpt lat="47.88285" lon="5.34112">
        <time>2015-05-13T00:49:07Z</time>
      </trkpt>
      <trkpt lat="47.88261" lon="5.34102">
        <time>2015-05-13T00:49:10Z</time>
      </trkpt>
      <trkpt lat="47.88247" lon="5.341">
        <time>2015-05-13T00:49:12Z</time>
      </trkpt>
      <trkpt lat="47.88232" lon="5.34104">
        <time>2015-05-13T00:49:14Z</time>
      </trkpt>
      <trkpt lat="47.8822" lon="5.34108">
        <time>2015-05-13T00:49:16Z</time>
      </trkpt>
      <trkpt lat="47.88202" lon="5.34121">
        <time>2015-05-13T00:49:18Z</time>
      </trkpt>
      <trkpt lat="47.88152" lon="5.34166">
        <time>2015-05-13T00:49:26Z</time>
      </trkpt>
      <trkpt lat="47.88108" lon="5.34192">
        <time>2015-05-13T00:49:32Z</time>
      </trkpt>
      <trkpt lat="47.88075" lon="5.34209">
        <time>2015-05-13T00:49:37Z</time>
      </trkpt>
      <trkpt lat="47.88075" lon="5.34209">
        <time>2015-05-13T00:49:37Z</time>
      </trkpt>
      <trkpt lat="47.88046" lon="5.34223">
        <time>2015-05-13T00:49:41Z</time>
      </trkpt>
      <trkpt lat="47.87996" lon="5.34164">
        <time>2015-05-13T00:49:49Z</time>
      </trkpt>
      <trkpt lat="47.87948" lon="5.34105">
        <time>2015-05-13T00:49:58Z</time>
      </trkpt>
      <trkpt lat="47.87899" lon="5.34047">
        <time>2015-05-13T00:50:06Z</time>
      </trkpt>
      <trkpt lat="47.87884" lon="5.34035">
        <time>2015-05-13T00:50:08Z</time>
      </trkpt>
      <trkpt lat="47.87868" lon="5.34027">
        <time>2015-05-13T00:50:10Z</time>
      </trkpt>
      <trkpt lat="47.87846" lon="5.34024">
        <time>2015-05-13T00:50:13Z</time>
      </trkpt>
      <trkpt lat="47.87817" lon="5.3402">
        <time>2015-05-13T00:50:17Z</time>
      </trkpt>
      <trkpt lat="47.87791" lon="5.3401">
        <time>2015-05-13T00:50:21Z</time>
      </trkpt>
      <trkpt lat="47.8777" lon="5.33997">
        <time>2015-05-13T00:50:24Z</time>
      </trkpt>
      <trkpt lat="47.87726" lon="5.3396">
        <time>2015-05-13T00:50:30Z</time>
      </trkpt>
      <trkpt lat="47.87699" lon="5.3393">
        <time>2015-05-13T00:50:35Z</time>
      </trkpt>
      <trkpt lat="47.87672" lon="5.33894">
        <time>2015-05-13T00:50:40Z</time>
      </trkpt>
      <trkpt lat="47.87588" lon="5.3375">
        <time>2015-05-13T00:50:56Z</time>
      </trkpt>
      <trkpt lat="47.87484" lon="5.33565">
        <time>2015-05-13T00:51:18Z</time>
      </trkpt>
      <trkpt lat="47.87399" lon="5.33436">
        <time>2015-05-13T00:51:34Z</time>
      </trkpt>
      <trkpt lat="47.87388" lon="5.33424">
        <time>2015-05-13T00:51:36Z</time>
      </trkpt>
      <trkpt lat="47.87364" lon="5.33389">
        <time>2015-05-13T00:51:40Z</time>
      </trkpt>
      <trkpt lat="47.8735" lon="5.33369">
        <time>2015-05-13T00:51:43Z</time>
      </trkpt>
      <trkpt lat="47.87339" lon="5.33351">
        <time>2015-05-13T00:51:45Z</time>
      </trkpt>
      <trkpt lat="47.87324" lon="5.33333">
        <time>2015-05-13T00:51:47Z</time>
      </trkpt>
      <trkpt lat="47.87318" lon="5.33329">
        <time>2015-05-13T00:51:48Z</time>
      </trkpt>
      <trkpt lat="47.87318" lon="5.33329">
        <time>2015-05-13T00:51:48Z</time>
      </trkpt>
      <trkpt lat="47.87313" lon="5.33326">
        <time>2015-05-13T00:51:49Z</time>
      </trkpt>
      <trkpt lat="47.87305" lon="5.33322">
        <time>2015-05-13T00:51:50Z</time>
      </trkpt>
      <trkpt lat="47.87304" lon="5.33324">
        <time>2015-05-13T00:51:50Z</time>
      </trkpt>
      <trkpt lat="47.87302" lon="5.33325">
        <time>2015-05-13T00:51:51Z</time>
      </trkpt>
      <trkpt lat="47.873" lon="5.33326">
        <time>2015-05-13T00:51:51Z</time>
      </trkpt>
      <trkpt lat="47.87297" lon="5.33326">
        <time>2015-05-13T00:51:51Z</time>
      </trkpt>
      <trkpt lat="47.87294" lon="5.33326">
        <time>2015-05-13T00:51:52Z</time>
      </trkpt>
      <trkpt lat="47.87292" lon="5.33325">
        <time>2015-05-13T00:51:52Z</time>
      </trkpt>
      <trkpt lat="47.8728" lon="5.33332">
        <time>2015-05-13T00:51:54Z</time>
      </trkpt>
      <trkpt lat="47.87265" lon="5.33346">
        <time>2015-05-13T00:51:56Z</time>
      </trkpt>
      <trkpt lat="47.87253" lon="5.33369">
        <time>2015-05-13T00:51:59Z</time>
      </trkpt>
      <trkpt lat="47.87238" lon="5.33403">
        <time>2015-05-13T00:52:02Z</time>
      </trkpt>
      <trkpt lat="47.87227" lon="5.33436">
        <time>2015-05-13T00:52:05Z</time>
      </trkpt>
      <trkpt lat="47.87216" lon="5.33484">
        <time>2015-05-13T00:52:10Z</time>
      </trkpt>
      <trkpt lat="47.87202" lon="5.3356">
        <time>2015-05-13T00:52:17Z</time>
      </trkpt>
      <trkpt lat="47.87171" lon="5.33733">
        <time>2015-05-13T00:52:33Z</time>
      </trkpt>
      <trkpt lat="47.87156" lon="5.33806">
        <time>2015-05-13T00:52:40Z</time>
      </trkpt>
      <trkpt lat="47.87144" lon="5.33848">
        <time>2015-05-13T00:52:44Z</time>
      </trkpt>
      <trkpt lat="47.8714" lon="5.33856">
        <time>2015-05-13T00:52:44Z</time>
      </trkpt>
      <trkpt lat="47.87133" lon="5.3387">
        <time>2015-05-13T00:52:46Z</time>
      </trkpt>
      <trkpt lat="47.87114" lon="5.33909">
        <time>2015-05-13T00:52:50Z</time>
      </trkpt>
      <trkpt lat="47.87094" lon="5.33943">
        <time>2015-05-13T00:52:54Z</time>
      </trkpt>
      <trkpt lat="47.87057" lon="5.33996">
        <time>2015-05-13T00:53:01Z</time>
      </trkpt>
      <trkpt lat="47.87042" lon="5.34009">
        <time>2015-05-13T00:53:03Z</time>
      </trkpt>
      <trkpt lat="47.87034" lon="5.34006">
        <time>2015-05-13T00:53:04Z</time>
      </trkpt>
      <trkpt lat="47.87024" lon="5.34009">
        <time>2015-05-13T00:53:06Z</time>
      </trkpt>
      <trkpt lat="47.86995" lon="5.34007">
        <time>2015-05-13T00:53:10Z</time>
      </trkpt>
      <trkpt lat="47.86989" lon="5.34009">
        <time>2015-05-13T00:53:10Z</time>
      </trkpt>
      <trkpt lat="47.86986" lon="5.34012">
        <time>2015-05-13T00:53:11Z</time>
      </trkpt>
      <trkpt lat="47.86976" lon="5.3402">
        <time>2015-05-13T00:53:12Z</time>
      </trkpt>
      <trkpt lat="47.86963" lon="5.34034">
        <time>2015-05-13T00:53:15Z</time>
      </trkpt>
      <trkpt lat="47.86906" lon="5.34102">
        <time>2015-05-13T00:53:24Z</time>
      </trkpt>
      <trkpt lat="47.86882" lon="5.34129">
        <time>2015-05-13T00:53:28Z</time>
      </trkpt>
      <trkpt lat="47.8686" lon="5.3415">
        <time>2015-05-13T00:53:32Z</time>
      </trkpt>
      <trkpt lat="47.86801" lon="5.34192">
        <time>2015-05-13T00:53:40Z</time>
      </trkpt>
      <trkpt lat="47.86746" lon="5.34224">
        <time>2015-05-13T00:53:48Z</time>
      </trkpt>
      <trkpt lat="47.86695" lon="5.34246">
        <time>2015-05-13T00:53:55Z</time>
      </trkpt>
      <trkpt lat="47.86662" lon="5.34255">
        <time>2015-05-13T00:54:00Z</time>
      </trkpt>
      <trkpt lat="47.86637" lon="5.34258">
        <time>2015-05-13T00:54:03Z</time>
      </trkpt>
      <trkpt lat="47.86466" lon="5.34259">
        <time>2015-05-13T00:54:25Z</time>
      </trkpt>
      <trkpt lat="47.86449" lon="5.34259">
        <time>2015-05-13T00:54:28Z</time>
      </trkpt>
      <trkpt lat="47.86449" lon="5.34259">
        <time>2015-05-13T00:54:28Z</time>
      </trkpt>
      <trkpt lat="47.86349" lon="5.34261">
        <time>2015-05-13T00:54:41Z</time>
      </trkpt>
      <trkpt lat="47.86299" lon="5.34271">
        <time>2015-05-13T00:54:48Z</time>
      </trkpt>
      <trkpt lat="47.86258" lon="5.34285">
        <time>2015-05-13T00:54:53Z</time>
      </trkpt>
      <trkpt lat="47.86098" lon="5.34358">
        <time>2015-05-13T00:55:15Z</time>
      </trkpt>
      <trkpt lat="47.85965" lon="5.34419">
        <time>2015-05-13T00:55:34Z</time>
      </trkpt>
      <trkpt lat="47.85922" lon="5.34436">
        <time>2015-05-13T00:55:40Z</time>
      </trkpt>
      <trkpt lat="47.85873" lon="5.3445">
        <time>2015-05-13T00:55:46Z</time>
      </trkpt>
      <trkpt lat="47.85864" lon="5.34451">
        <time>2015-05-13T00:55:47Z</time>
      </trkpt>
      <trkpt lat="47.85798" lon="5.34464">
        <time>2015-05-13T00:55:56Z</time>
      </trkpt>
      <trkpt lat="47.85746" lon="5.34478">
        <time>2015-05-13T00:56:03Z</time>
      </trkpt>
      <trkpt lat="47.85674" lon="5.345">
        <time>2015-05-13T00:56:13Z</time>
      </trkpt>
      <trkpt lat="47.8567" lon="5.34503">
        <time>2015-05-13T00:56:13Z</time>
      </trkpt>
      <trkpt lat="47.85603" lon="5.34521">
        <time>2015-05-13T00:56:22Z</time>
      </trkpt>
      <trkpt lat="47.85521" lon="5.34542">
        <time>2015-05-13T00:56:33Z</time>
      </trkpt>
      <trkpt lat="47.85493" lon="5.34549">
        <time>2015-05-13T00:56:37Z</time>
      </trkpt>
      <trkpt lat="47.8549" lon="5.34547">
        <time>2015-05-13T00:56:38Z</time>
      </trkpt>
      <trkpt lat="47.85473" lon="5.34547">
        <time>2015-05-13T00:56:40Z</time>
      </trkpt>
      <trkpt lat="47.85451" lon="5.34544">
        <time>2015-05-13T00:56:43Z</time>
      </trkpt>
      <trkpt lat="47.85436" lon="5.34537">
        <time>2015-05-13T00:56:45Z</time>
      </trkpt>
      <trkpt lat="47.85428" lon="5.34525">
        <time>2015-05-13T00:56:46Z</time>
      </trkpt>
      <trkpt lat="47.8542" lon="5.34519">
        <time>2015-05-13T00:56:48Z</time>
      </trkpt>
      <trkpt lat="47.8541" lon="5.34517">
        <time>2015-05-13T00:56:49Z</time>
      </trkpt>
      <trkpt lat="47.85403" lon="5.34521">
        <time>2015-05-13T00:56:50Z</time>
      </trkpt>
      <trkpt lat="47.85397" lon="5.34529">
        <time>2015-05-13T00:56:51Z</time>
      </trkpt>
      <trkpt lat="47.85394" lon="5.34534">
        <time>2015-05-13T00:56:51Z</time>
      </trkpt>
      <trkpt lat="47.85394" lon="5.34526">
        <time>2015-05-13T00:56:52Z</time>
      </trkpt>
      <trkpt lat="47.85393" lon="5.34517">
        <time>2015-05-13T00:56:53Z</time>
      </trkpt>
      <trkpt lat="47.85377" lon="5.34468">
        <time>2015-05-13T00:56:58Z</time>
      </trkpt>
      <trkpt lat="47.85377" lon="5.34468">
        <time>2015-05-13T00:56:58Z</time>
      </trkpt>
      <trkpt lat="47.85365" lon="5.34433">
        <time>2015-05-13T00:57:01Z</time>
      </trkpt>
      <trkpt lat="47.85337" lon="5.34333">
        <time>2015-05-13T00:57:11Z</time>
      </trkpt>
      <trkpt lat="47.85298" lon="5.34215">
        <time>2015-05-13T00:57:23Z</time>
      </trkpt>
      <trkpt lat="47.85291" lon="5.34186">
        <time>2015-05-13T00:57:25Z</time>
      </trkpt>
      <trkpt lat="47.85289" lon="5.34154">
        <time>2015-05-13T00:57:28Z</time>
      </trkpt>
      <trkpt lat="47.85289" lon="5.34055">
        <time>2015-05-13T00:57:37Z</time>
      </trkpt>
      <trkpt lat="47.85291" lon="5.34024">
        <time>2015-05-13T00:57:40Z</time>
      </trkpt>
      <trkpt lat="47.85295" lon="5.33998">
        <time>2015-05-13T00:57:42Z</time>
      </trkpt>
      <trkpt lat="47.85301" lon="5.33974">
        <time>2015-05-13T00:57:44Z</time>
      </trkpt>
      <trkpt lat="47.85313" lon="5.33951">
        <time>2015-05-13T00:57:47Z</time>
      </trkpt>
      <trkpt lat="47.85379" lon="5.33848">
        <time>2015-05-13T00:58:00Z</time>
      </trkpt>
      <trkpt lat="47.85409" lon="5.33802">
        <time>2015-05-13T00:58:05Z</time>
      </trkpt>
      <trkpt lat="47.85426" lon="5.3378">
        <time>2015-05-13T00:58:08Z</time>
      </trkpt>
      <trkpt lat="47.85485" lon="5.33715">
        <time>2015-05-13T00:58:18Z</time>
      </trkpt>
      <trkpt lat="47.85521" lon="5.33682">
        <time>2015-05-13T00:58:24Z</time>
      </trkpt>
      <trkpt lat="47.8555" lon="5.33664">
        <time>2015-05-13T00:58:28Z</time>
      </trkpt>
      <trkpt lat="47.85593" lon="5.33644">
        <time>2015-05-13T00:58:34Z</time>
      </trkpt>
      <trkpt lat="47.85669" lon="5.33607">
        <time>2015-05-13T00:58:44Z</time>
      </trkpt>
      <trkpt lat="47.85689" lon="5.3359">
        <time>2015-05-13T00:58:47Z</time>
      </trkpt>
      <trkpt lat="47.85704" lon="5.33574">
        <time>2015-05-13T00:58:50Z</time>
      </trkpt>
      <trkpt lat="47.85731" lon="5.33529">
        <time>2015-05-13T00:58:55Z</time>
      </trkpt>
      <trkpt lat="47.85744" lon="5.33514">
        <time>2015-05-13T00:58:57Z</time>
      </trkpt>
      <trkpt lat="47.85755" lon="5.33507">
        <time>2015-05-13T00:58:59Z</time>
      </trkpt>
      <trkpt lat="47.85761" lon="5.33503">
        <time>2015-05-13T00:59:00Z</time>
      </trkpt>
      <trkpt lat="47.85773" lon="5.335">
        <time>2015-05-13T00:59:01Z</time>
      </trkpt>
      <trkpt lat="47.85786" lon="5.335">
        <time>2015-05-13T00:59:03Z</time>
      </trkpt>
      <trkpt lat="47.85799" lon="5.33503">
        <time>2015-05-13T00:59:05Z</time>
      </trkpt>
      <trkpt lat="47.85822" lon="5.33509">
        <time>2015-05-13T00:59:08Z</time>
      </trkpt>
      <trkpt lat="47.85842" lon="5.33511">
        <time>2015-05-13T00:59:10Z</time>
      </trkpt>
      <trkpt lat="47.85854" lon="5.33509">
        <time>2015-05-13T00:59:12Z</time>
      </trkpt>
      <trkpt lat="47.85859" lon="5.33506">
        <time>2015-05-13T00:59:13Z</time>
      </trkpt>
      <trkpt lat="47.85865" lon="5.33501">
        <time>2015-05-13T00:59:14Z</time>
      </trkpt>
      <trkpt lat="47.85875" lon="5.33486">
        <time>2015-05-13T00:59:16Z</time>
      </trkpt>
      <trkpt lat="47.85882" lon="5.33471">
        <time>2015-05-13T00:59:17Z</time>
      </trkpt>
      <trkpt lat="47.85886" lon="5.33455">
        <time>2015-05-13T00:59:19Z</time>
      </trkpt>
      <trkpt lat="47.85887" lon="5.33441">
        <time>2015-05-13T00:59:20Z</time>
      </trkpt>
      <trkpt lat="47.85884" lon="5.33426">
        <time>2015-05-13T00:59:21Z</time>
      </trkpt>
      <trkpt lat="47.8588" lon="5.33411">
        <time>2015-05-13T00:59:23Z</time>
      </trkpt>
      <trkpt lat="47.85874" lon="5.334">
        <time>2015-05-13T00:59:24Z</time>
      </trkpt>
      <trkpt lat="47.85816" lon="5.33333">
        <time>2015-05-13T00:59:34Z</time>
      </trkpt>
      <trkpt lat="47.85804" lon="5.33315">
        <time>2015-05-13T00:59:36Z</time>
      </trkpt>
      <trkpt lat="47.85801" lon="5.33306">
        <time>2015-05-13T00:59:37Z</time>
      </trkpt>
      <trkpt lat="47.858" lon="5.33293">
        <time>2015-05-13T00:59:38Z</time>
      </trkpt>
      <trkpt lat="47.85806" lon="5.33277">
        <time>2015-05-13T00:59:40Z</time>
      </trkpt>
      <trkpt lat="47.8581" lon="5.33272">
        <time>2015-05-13T00:59:40Z</time>
      </trkpt>
      <trkpt lat="47.85814" lon="5.33271">
        <time>2015-05-13T00:59:41Z</time>
      </trkpt>
      <trkpt lat="47.85824" lon="5.33272">
        <time>2015-05-13T00:59:42Z</time>
      </trkpt>
      <trkpt lat="47.85839" lon="5.33281">
        <time>2015-05-13T00:59:44Z</time>
      </trkpt>
      <trkpt lat="47.85857" lon="5.33305">
        <time>2015-05-13T00:59:47Z</time>
      </trkpt>
      <trkpt lat="47.85878" lon="5.3331">
        <time>2015-05-13T00:59:50Z</time>
      </trkpt>
      <trkpt lat="47.85899" lon="5.3331">
        <time>2015-05-13T00:59:53Z</time>
      </trkpt>
      <trkpt lat="47.85911" lon="5.33306">
        <time>2015-05-13T00:59:55Z</time>
      </trkpt>
      <trkpt lat="47.8592" lon="5.33318">
        <time>2015-05-13T00:59:56Z</time>
      </trkpt>
    </trkseg>
  </trk>
</gpx>

